In Rescue
 
Open Full Screen Window  High Contrast Mode
December 15, 2019 6:20 PM EST
Weather Information
Wind Direction
  ---
Wind Speed
  00 kt (0 mph)
Wind Gust
  00 kt (0 mph)
Altimeter
30.13 in
Visibility
10 SM
Temperature
-02° C
28° F
Dewpoint
-08° C
18° F
Humidity
64%
1hr Rain Fall
00.00 in.
24hr Rain Fall
00.01 in.
Sky Condition
Overcast @ 3,400 ft
VFR

METAR KPOV 152320Z AUTO 00000KT 10SM OVC034 M02/M08 A3013 RMK AO2 T10171078 PWINO

FAA Disclaimer: The data displayed is for advisory purposes only and is not to be used for flight planning or operations.